Time;durP1;ratioP1;P1;durP2;ratioP2;P2;SDS_P1;SDS_P2;PMS_P1;PMS_P2;Temp;Humidity;BMP_temperature;BMP_pressure;BME280_temperature;BME280_humidity;BME280_pressure;Samples;Min_cycle;Max_cycle;Signal;HPM_P1;HPM_P2
2023/05/23 00:01:41;;;;;;;34.35;14.93;;;13.20;99.90;;;;;;4949740;28;20050;-85
2023/05/23 00:04:08;;;;;;;32.00;14.73;;;13.20;99.90;;;;;;4977512;28;20497;-84
2023/05/23 00:06:34;;;;;;;29.65;13.75;;;13.20;99.90;;;;;;4965238;28;20516;-84
2023/05/23 00:09:01;;;;;;;35.42;15.43;;;13.20;99.90;;;;;;4951419;28;20074;-85
2023/05/23 00:11:28;;;;;;;35.70;16.42;;;13.10;99.90;;;;;;4935615;28;20392;-83
2023/05/23 00:13:54;;;;;;;30.42;14.00;;;13.20;99.90;;;;;;4945351;28;20046;-84
2023/05/23 00:16:20;;;;;;;30.08;13.52;;;13.10;99.90;;;;;;4981972;28;20039;-85
2023/05/23 00:18:46;;;;;;;32.30;13.85;;;13.10;99.90;;;;;;4969558;28;20541;-82
2023/05/23 00:21:15;;;;;;;32.78;13.63;;;13.10;99.90;;;;;;4965511;28;20042;-83
2023/05/23 00:23:41;;;;;;;28.83;12.82;;;13.10;99.90;;;;;;4983376;28;20121;-82
2023/05/23 00:26:10;;;;;;;34.30;13.90;;;13.10;99.90;;;;;;4975524;28;20129;-83
2023/05/23 00:28:39;;;;;;;29.45;12.52;;;13.10;99.90;;;;;;4956268;28;20615;-83
2023/05/23 00:31:05;;;;;;;33.15;15.27;;;13.10;99.90;;;;;;4959027;28;20047;-85
2023/05/23 00:33:33;;;;;;;36.60;13.25;;;13.10;99.90;;;;;;4974647;28;20134;-83
2023/05/23 00:35:59;;;;;;;26.85;11.93;;;13.10;99.90;;;;;;4959208;28;20471;-83
2023/05/23 00:38:25;;;;;;;35.67;13.77;;;13.10;99.90;;;;;;4954095;28;20155;-83
2023/05/23 00:40:51;;;;;;;29.23;13.10;;;13.00;99.90;;;;;;4968342;28;20118;-83
2023/05/23 00:43:18;;;;;;;31.30;12.48;;;13.00;99.90;;;;;;4978395;28;20487;-82
2023/05/23 00:45:44;;;;;;;30.23;11.52;;;13.00;99.90;;;;;;4949212;28;20042;-84
2023/05/23 00:48:10;;;;;;;29.13;12.80;;;13.10;99.90;;;;;;4981007;28;20060;-83
2023/05/23 00:50:36;;;;;;;27.05;12.48;;;13.00;99.90;;;;;;4953498;28;20525;-84
2023/05/23 00:53:02;;;;;;;24.88;12.13;;;13.00;99.90;;;;;;4986384;28;20048;-82
2023/05/23 00:55:29;;;;;;;27.52;11.40;;;13.00;99.90;;;;;;4979355;28;20045;-84
2023/05/23 00:57:56;;;;;;;26.40;11.40;;;13.00;99.90;;;;;;4989422;28;20042;-83
2023/05/23 01:00:25;;;;;;;25.95;11.35;;;13.10;99.90;;;;;;4975634;28;20053;-83
2023/05/23 01:02:52;;;;;;;31.17;11.93;;;13.00;99.90;;;;;;4971927;28;20047;-83
2023/05/23 01:05:21;;;;;;;24.73;10.93;;;13.00;99.90;;;;;;4962247;28;21626;-83
2023/05/23 01:07:50;;;;;;;30.20;11.38;;;13.00;99.90;;;;;;4967933;28;20086;-83
2023/05/23 01:10:22;;;;;;;27.45;11.20;;;13.00;99.90;;;;;;4981896;28;20129;-83
2023/05/23 01:12:59;;;;;;;29.52;11.43;;;13.00;99.90;;;;;;4983416;28;20084;-82
2023/05/23 01:15:46;;;;;;;22.08;10.13;;;12.90;99.90;;;;;;4964297;28;20058;-83
2023/05/23 01:18:15;;;;;;;27.30;10.38;;;12.90;99.90;;;;;;4983972;28;20077;-83
2023/05/23 01:20:51;;;;;;;24.80;10.38;;;12.90;99.90;;;;;;4979267;28;20046;-84
2023/05/23 01:23:22;;;;;;;28.08;9.93;;;12.90;99.90;;;;;;4947428;28;20034;-83
2023/05/23 01:26:18;;;;;;;27.95;10.48;;;12.90;99.90;;;;;;4981083;28;20046;-85
2023/05/23 01:28:53;;;;;;;26.75;9.75;;;12.90;99.90;;;;;;4963793;28;20074;-83
2023/05/23 01:31:20;;;;;;;20.05;9.25;;;12.90;99.90;;;;;;4964582;28;21126;-83
2023/05/23 01:33:49;;;;;;;29.30;11.05;;;12.90;99.90;;;;;;4963621;28;20101;-83
2023/05/23 01:36:15;;;;;;;25.15;9.70;;;12.90;99.90;;;;;;4959416;28;20042;-82
2023/05/23 01:38:40;;;;;;;27.77;10.65;;;12.90;99.90;;;;;;4970817;28;20038;-85
2023/05/23 01:41:06;;;;;;;22.83;10.27;;;12.90;99.90;;;;;;4984001;28;20482;-82
2023/05/23 01:43:32;;;;;;;22.20;8.85;;;12.90;99.90;;;;;;4962169;28;20631;-84
2023/05/23 01:45:59;;;;;;;24.20;8.90;;;12.90;99.90;;;;;;4963427;28;20351;-83
2023/05/23 01:48:26;;;;;;;26.92;9.45;;;12.90;99.90;;;;;;4959135;28;20046;-82
2023/05/23 01:50:53;;;;;;;22.23;9.35;;;12.90;99.90;;;;;;4965534;28;20058;-82
2023/05/23 01:53:21;;;;;;;28.73;9.43;;;12.90;99.90;;;;;;4967833;28;20045;-84
2023/05/23 01:55:47;;;;;;;23.80;8.75;;;12.90;99.90;;;;;;4968017;28;20050;-83
2023/05/23 01:58:13;;;;;;;25.02;8.85;;;12.90;99.90;;;;;;4977276;28;20390;-83
2023/05/23 02:00:38;;;;;;;23.40;8.20;;;12.90;99.90;;;;;;4986032;28;20058;-83
2023/05/23 02:03:04;;;;;;;27.48;8.80;;;12.80;99.90;;;;;;4969639;28;20039;-83
2023/05/23 02:05:30;;;;;;;32.65;10.00;;;12.80;99.90;;;;;;4954323;28;20104;-83
2023/05/23 02:07:56;;;;;;;25.83;8.95;;;12.80;99.90;;;;;;4953080;28;20054;-82
2023/05/23 02:10:22;;;;;;;24.58;9.00;;;12.80;99.90;;;;;;4962993;28;20081;-82
2023/05/23 02:12:48;;;;;;;27.58;9.68;;;12.80;99.90;;;;;;4969123;28;20057;-82
2023/05/23 02:15:14;;;;;;;26.80;9.27;;;12.70;99.90;;;;;;4950968;28;20176;-82
2023/05/23 02:17:40;;;;;;;26.05;9.02;;;12.70;99.90;;;;;;4984880;28;20512;-84
2023/05/23 02:20:07;;;;;;;25.98;8.43;;;12.70;99.90;;;;;;4979476;28;20501;-82
2023/05/23 02:22:32;;;;;;;25.27;9.15;;;12.60;99.90;;;;;;4964607;28;20053;-82
2023/05/23 02:24:58;;;;;;;27.02;8.48;;;12.60;99.90;;;;;;4985251;28;20054;-83
2023/05/23 02:27:24;;;;;;;26.95;9.00;;;12.60;99.90;;;;;;4980529;28;20104;-83
2023/05/23 02:29:49;;;;;;;20.83;7.68;;;12.60;99.90;;;;;;4960999;28;20097;-84
2023/05/23 02:32:15;;;;;;;23.77;8.20;;;12.60;99.90;;;;;;4962824;28;20047;-83
2023/05/23 02:34:41;;;;;;;27.73;8.50;;;12.60;99.90;;;;;;4957119;28;20048;-84
2023/05/23 02:37:06;;;;;;;26.20;7.93;;;12.60;99.90;;;;;;4966285;28;20042;-84
2023/05/23 02:39:34;;;;;;;29.02;9.20;;;12.50;99.90;;;;;;4988453;28;20053;-82
2023/05/23 02:42:00;;;;;;;22.55;8.45;;;12.50;99.90;;;;;;4961550;28;20057;-84
2023/05/23 02:44:26;;;;;;;29.58;8.45;;;12.50;99.90;;;;;;4983230;28;20042;-83
2023/05/23 02:46:52;;;;;;;24.85;8.23;;;12.50;99.90;;;;;;4980325;28;20065;-82
2023/05/23 02:49:17;;;;;;;24.27;7.60;;;12.50;99.90;;;;;;4966549;28;20097;-82
2023/05/23 02:51:43;;;;;;;27.45;7.68;;;12.50;99.90;;;;;;4977155;28;20398;-84
2023/05/23 02:54:09;;;;;;;25.02;8.13;;;12.50;99.90;;;;;;4966463;28;20038;-85
2023/05/23 02:56:34;;;;;;;21.15;6.95;;;12.50;99.90;;;;;;4980400;28;20497;-83
2023/05/23 02:59:00;;;;;;;25.40;6.70;;;12.50;99.90;;;;;;4966978;28;21133;-86
2023/05/23 03:01:26;;;;;;;27.90;7.40;;;12.50;99.90;;;;;;4972376;28;20061;-84
2023/05/23 03:03:51;;;;;;;18.17;5.25;;;12.50;99.90;;;;;;4968412;28;20053;-84
2023/05/23 03:06:18;;;;;;;31.00;6.68;;;12.50;99.90;;;;;;4978619;28;20121;-84
2023/05/23 03:08:43;;;;;;;24.77;7.75;;;12.50;99.90;;;;;;4946158;28;20035;-82
2023/05/23 03:11:09;;;;;;;23.65;6.18;;;12.50;99.90;;;;;;4981312;28;20041;-84
2023/05/23 03:13:35;;;;;;;19.23;6.07;;;12.50;99.90;;;;;;4984524;28;20049;-84
2023/05/23 03:16:01;;;;;;;18.98;5.72;;;12.50;99.90;;;;;;4965476;28;20517;-84
2023/05/23 03:18:26;;;;;;;17.40;5.18;;;12.40;99.90;;;;;;4964672;28;20201;-84
2023/05/23 03:20:52;;;;;;;20.25;5.93;;;12.40;99.90;;;;;;4966801;28;20106;-84
2023/05/23 03:23:18;;;;;;;22.17;5.72;;;12.40;99.90;;;;;;4964231;28;20030;-83
2023/05/23 03:25:43;;;;;;;23.52;6.68;;;12.40;99.90;;;;;;4978838;28;20506;-84
2023/05/23 03:28:11;;;;;;;19.20;6.07;;;12.40;99.90;;;;;;4964234;28;20405;-83
2023/05/23 03:30:37;;;;;;;20.98;5.88;;;12.40;99.90;;;;;;4966066;28;20521;-84
2023/05/23 03:33:03;;;;;;;16.35;5.57;;;12.40;99.90;;;;;;4984275;28;20049;-86
2023/05/23 03:35:28;;;;;;;20.98;6.47;;;12.40;99.90;;;;;;4981003;28;20042;-84
2023/05/23 03:37:54;;;;;;;22.85;6.57;;;12.30;99.90;;;;;;4984737;28;20133;-82
2023/05/23 03:40:20;;;;;;;12.75;4.97;;;12.30;99.90;;;;;;4983144;28;20047;-84
2023/05/23 03:42:48;;;;;;;18.58;5.72;;;12.30;99.90;;;;;;4983436;28;20453;-83
2023/05/23 03:45:14;;;;;;;17.60;5.15;;;12.30;99.90;;;;;;4980562;28;20082;-83
2023/05/23 03:47:39;;;;;;;16.88;5.25;;;12.20;99.90;;;;;;4975298;28;20181;-82
2023/05/23 03:50:06;;;;;;;17.65;5.65;;;12.20;99.90;;;;;;4975506;28;20077;-84
2023/05/23 03:52:31;;;;;;;18.17;5.63;;;12.20;99.90;;;;;;4964591;28;20371;-84
2023/05/23 03:54:57;;;;;;;20.33;5.78;;;12.20;99.90;;;;;;4986005;28;20046;-82
2023/05/23 03:57:23;;;;;;;13.23;4.90;;;12.10;99.90;;;;;;4933850;28;20061;-84
2023/05/23 03:59:49;;;;;;;16.15;4.78;;;12.10;99.90;;;;;;4964674;28;20130;-82
2023/05/23 04:02:15;;;;;;;17.65;5.75;;;12.10;99.90;;;;;;4977564;28;20046;-82
2023/05/23 04:04:42;;;;;;;14.15;5.43;;;12.10;99.90;;;;;;4967982;28;20034;-84
2023/05/23 04:07:08;;;;;;;20.73;5.95;;;12.10;99.90;;;;;;4960449;28;20050;-85
2023/05/23 04:09:34;;;;;;;21.05;5.82;;;12.00;99.90;;;;;;4978143;28;20039;-83
2023/05/23 04:12:00;;;;;;;18.67;5.40;;;12.00;99.90;;;;;;4962477;28;20055;-82
2023/05/23 04:14:26;;;;;;;21.50;5.70;;;12.00;99.90;;;;;;4962890;28;20410;-84
2023/05/23 04:16:52;;;;;;;18.90;5.28;;;12.00;99.90;;;;;;4974391;28;20586;-83
2023/05/23 04:19:18;;;;;;;19.55;5.70;;;12.00;99.90;;;;;;4958369;28;20042;-81
2023/05/23 04:21:43;;;;;;;16.50;5.05;;;11.90;99.90;;;;;;4961146;28;20042;-83
2023/05/23 04:24:09;;;;;;;19.70;5.60;;;11.90;99.90;;;;;;4959370;28;20038;-81
2023/05/23 04:26:35;;;;;;;24.08;7.13;;;11.90;99.90;;;;;;4975172;28;20184;-84
2023/05/23 04:29:04;;;;;;;19.40;7.13;;;11.80;99.90;;;;;;4983430;28;20231;-80
2023/05/23 04:31:30;;;;;;;17.33;6.32;;;11.80;99.90;;;;;;4963340;28;20078;-82
2023/05/23 04:33:56;;;;;;;16.42;5.97;;;11.80;99.90;;;;;;4975946;28;20089;-83
2023/05/23 04:36:22;;;;;;;17.00;5.68;;;11.70;99.90;;;;;;4964908;28;20904;-83
2023/05/23 04:38:48;;;;;;;21.20;6.45;;;11.70;99.90;;;;;;4978107;28;20335;-85
2023/05/23 04:41:15;;;;;;;16.98;6.90;;;11.70;99.90;;;;;;4958945;28;20301;-86
2023/05/23 04:43:41;;;;;;;24.35;7.05;;;11.70;99.90;;;;;;4966197;28;20498;-83
2023/05/23 04:46:08;;;;;;;22.85;6.57;;;11.70;99.90;;;;;;4975362;28;20555;-82
2023/05/23 04:48:35;;;;;;;16.80;7.78;;;11.60;99.90;;;;;;4982614;28;20096;-83
2023/05/23 04:51:05;;;;;;;25.80;7.50;;;11.70;99.90;;;;;;4986053;28;20054;-78
2023/05/23 04:53:30;;;;;;;19.77;7.03;;;11.60;99.90;;;;;;4962067;28;20046;-81
2023/05/23 04:55:56;;;;;;;21.48;7.32;;;11.60;99.90;;;;;;4953620;28;20034;-81
2023/05/23 04:58:22;;;;;;;18.77;6.93;;;11.60;99.90;;;;;;4941042;28;20051;-82
2023/05/23 05:00:47;;;;;;;21.02;6.82;;;11.60;99.90;;;;;;4952410;28;20042;-82
2023/05/23 05:03:13;;;;;;;20.40;7.55;;;11.60;99.90;;;;;;4981371;28;20035;-83
2023/05/23 05:05:39;;;;;;;14.23;6.85;;;11.60;99.90;;;;;;4983415;28;20485;-82
2023/05/23 05:08:05;;;;;;;17.60;5.90;;;11.60;99.90;;;;;;4981687;28;20065;-82
2023/05/23 05:10:30;;;;;;;11.15;4.53;;;11.60;99.90;;;;;;4969504;28;20528;-74
2023/05/23 05:12:56;;;;;;;14.55;4.53;;;11.60;99.90;;;;;;4961578;28;20065;-75
2023/05/23 05:15:22;;;;;;;17.63;5.13;;;11.60;99.90;;;;;;4976127;28;20406;-73
2023/05/23 05:17:48;;;;;;;19.20;4.78;;;11.60;99.90;;;;;;4981039;28;20213;-72
2023/05/23 05:20:14;;;;;;;12.50;4.57;;;11.60;99.90;;;;;;4980652;28;20240;-76
2023/05/23 05:22:39;;;;;;;18.38;5.43;;;11.60;99.90;;;;;;4982388;28;20066;-75
2023/05/23 05:25:09;;;;;;;22.35;5.55;;;11.60;99.90;;;;;;4983391;28;20050;-76
2023/05/23 05:27:38;;;;;;;;;;;11.60;99.90;;;;;;4985025;28;20125;-77
2023/05/23 05:30:06;;;;;;;16.30;4.88;;;11.60;99.90;;;;;;4981573;28;20008;-77
2023/05/23 05:32:32;;;;;;;24.58;5.60;;;11.60;99.90;;;;;;4986442;28;20057;-76
2023/05/23 05:34:59;;;;;;;26.38;5.70;;;11.60;99.90;;;;;;4987887;28;20060;-77
2023/05/23 05:37:25;;;;;;;23.58;5.22;;;11.60;99.90;;;;;;4981105;28;20045;-77
2023/05/23 05:39:53;;;;;;;21.45;5.38;;;11.60;99.90;;;;;;4981909;28;21333;-77
2023/05/23 05:42:19;;;;;;;20.50;4.70;;;11.60;99.90;;;;;;4974446;28;20050;-77
2023/05/23 05:44:45;;;;;;;20.52;4.70;;;11.60;99.90;;;;;;4982672;28;20043;-74
2023/05/23 05:47:12;;;;;;;20.38;5.38;;;11.60;99.90;;;;;;4979656;28;20042;-75
2023/05/23 05:49:37;;;;;;;20.13;4.25;;;11.60;99.90;;;;;;4979952;28;20098;-73
2023/05/23 05:52:03;;;;;;;17.23;5.80;;;11.60;99.90;;;;;;4961138;28;20418;-73
2023/05/23 05:54:32;;;;;;;21.88;4.50;;;11.60;99.90;;;;;;4981939;28;20054;-74
2023/05/23 05:56:58;;;;;;;18.02;4.32;;;11.60;99.90;;;;;;4962324;28;20042;-73
2023/05/23 05:59:24;;;;;;;18.30;4.20;;;11.70;99.90;;;;;;4964649;28;20050;-74
2023/05/23 06:01:50;;;;;;;23.25;5.22;;;11.80;99.90;;;;;;4963925;28;22056;-74
2023/05/23 06:04:16;;;;;;;15.63;4.00;;;11.90;99.90;;;;;;4987440;28;20568;-74
2023/05/23 06:06:42;;;;;;;20.15;4.75;;;12.10;99.90;;;;;;4985168;28;20506;-75
2023/05/23 06:09:09;;;;;;;24.20;5.13;;;12.20;99.90;;;;;;4982102;28;20045;-74
2023/05/23 06:11:38;;;;;;;23.77;5.75;;;12.30;99.90;;;;;;4950193;28;20076;-74
2023/05/23 06:14:03;;;;;;;24.00;5.57;;;12.40;99.90;;;;;;4966921;28;20042;-73
2023/05/23 06:16:29;;;;;;;21.15;4.90;;;12.30;99.90;;;;;;4964102;28;20052;-74
2023/05/23 06:18:55;;;;;;;20.83;3.80;;;12.30;99.90;;;;;;4971857;28;20137;-73
2023/05/23 06:21:20;;;;;;;23.20;4.53;;;12.30;99.90;;;;;;4952093;28;20055;-73
2023/05/23 06:23:46;;;;;;;28.73;5.20;;;12.30;99.90;;;;;;4951651;28;20034;-73
2023/05/23 06:26:12;;;;;;;22.17;4.60;;;12.30;99.90;;;;;;4958719;28;20512;-74
2023/05/23 06:28:41;;;;;;;20.45;4.40;;;12.30;99.90;;;;;;4985585;28;20522;-75
2023/05/23 06:31:08;;;;;;;23.05;4.32;;;12.30;99.90;;;;;;4953871;28;20069;-75
2023/05/23 06:33:34;;;;;;;26.35;6.07;;;12.30;99.90;;;;;;4962692;28;20146;-75
2023/05/23 06:36:00;;;;;;;26.27;5.78;;;12.30;99.90;;;;;;4981819;28;20057;-74
2023/05/23 06:38:32;;;;;;;17.63;4.57;;;12.40;99.90;;;;;;4993021;28;20445;-74
2023/05/23 06:40:59;;;;;;;25.70;4.30;;;12.40;99.90;;;;;;4981427;28;20046;-73
2023/05/23 06:43:24;;;;;;;21.02;4.28;;;12.50;99.90;;;;;;4978990;28;20066;-74
2023/05/23 06:45:50;;;;;;;19.85;4.45;;;12.50;99.90;;;;;;4958995;28;20050;-74
2023/05/23 06:48:16;;;;;;;30.48;4.10;;;12.60;99.90;;;;;;4985092;28;20061;-74
2023/05/23 06:50:41;;;;;;;21.60;4.22;;;12.50;99.90;;;;;;4976698;28;20074;-74
2023/05/23 06:53:07;;;;;;;15.95;3.90;;;12.50;99.90;;;;;;4960557;28;20053;-74
2023/05/23 06:55:33;;;;;;;16.67;3.95;;;12.50;99.90;;;;;;4959648;28;20557;-74
2023/05/23 06:57:59;;;;;;;23.95;4.72;;;12.40;99.90;;;;;;4978176;28;20453;-74
2023/05/23 07:00:25;;;;;;;26.17;5.28;;;12.40;99.90;;;;;;4979034;28;20485;-75
2023/05/23 07:02:51;;;;;;;23.67;4.82;;;12.50;99.90;;;;;;4961178;28;20359;-74
2023/05/23 07:05:17;;;;;;;18.25;4.63;;;12.50;99.90;;;;;;4975499;28;20116;-73
2023/05/23 07:07:42;;;;;;;26.45;5.32;;;12.50;99.90;;;;;;4984429;28;20421;-73
2023/05/23 07:10:09;;;;;;;26.95;4.78;;;12.50;99.90;;;;;;4979052;28;20045;-73
2023/05/23 07:12:35;;;;;;;23.27;5.05;;;12.50;99.90;;;;;;4961271;28;20051;-73
2023/05/23 07:15:01;;;;;;;14.50;3.60;;;12.50;99.90;;;;;;4973481;28;20043;-73
2023/05/23 07:17:28;;;;;;;15.98;3.75;;;12.60;99.90;;;;;;4968974;28;20045;-73
2023/05/23 07:19:54;;;;;;;16.88;4.32;;;12.60;99.90;;;;;;4980056;28;20078;-73
2023/05/23 07:22:20;;;;;;;16.80;4.65;;;12.70;99.90;;;;;;4984858;28;20457;-74
2023/05/23 07:24:46;;;;;;;22.17;4.75;;;12.80;99.90;;;;;;4964717;28;20069;-74
2023/05/23 07:27:12;;;;;;;20.25;4.30;;;12.90;99.90;;;;;;4969203;28;20038;-74
2023/05/23 07:29:38;;;;;;;26.42;4.75;;;12.90;99.90;;;;;;4987374;28;20053;-74
2023/05/23 07:32:04;;;;;;;21.60;4.90;;;13.00;99.90;;;;;;4968862;28;20047;-73
2023/05/23 07:34:30;;;;;;;16.65;4.38;;;13.00;99.90;;;;;;4985782;28;20474;-76
2023/05/23 07:36:55;;;;;;;17.10;4.60;;;13.20;99.90;;;;;;4980968;28;20042;-73
2023/05/23 07:39:23;;;;;;;26.88;4.88;;;13.40;99.90;;;;;;4950065;28;20047;-74
2023/05/23 07:41:49;;;;;;;24.10;4.90;;;13.60;99.90;;;;;;4963393;28;20057;-74
2023/05/23 07:44:15;;;;;;;16.63;4.40;;;13.80;99.90;;;;;;4958351;28;20410;-73
2023/05/23 07:46:41;;;;;;;20.35;4.78;;;13.90;99.90;;;;;;4963549;28;20252;-73
2023/05/23 07:49:06;;;;;;;16.63;3.75;;;13.80;99.90;;;;;;4978163;28;20237;-73
2023/05/23 07:51:32;;;;;;;16.42;4.50;;;13.70;99.90;;;;;;4969305;28;20050;-73
2023/05/23 07:53:58;;;;;;;15.75;4.28;;;13.70;99.90;;;;;;4979340;28;20046;-73
2023/05/23 07:56:23;;;;;;;18.30;4.38;;;13.80;99.90;;;;;;4978261;28;20258;-73
2023/05/23 07:58:49;;;;;;;17.33;3.97;;;14.00;99.90;;;;;;4988348;28;20050;-73
2023/05/23 08:01:15;;;;;;;24.92;4.45;;;14.30;99.90;;;;;;4969513;28;20634;-73
2023/05/23 08:03:41;;;;;;;20.63;4.90;;;14.40;99.90;;;;;;4989023;28;20053;-73
2023/05/23 08:06:07;;;;;;;19.98;3.80;;;14.50;99.90;;;;;;4980786;28;20125;-74
2023/05/23 08:08:33;;;;;;;22.60;4.75;;;14.30;99.90;;;;;;4966959;28;20077;-73
2023/05/23 08:10:59;;;;;;;20.23;4.70;;;14.10;99.90;;;;;;4945985;28;20095;-74
2023/05/23 08:13:25;;;;;;;19.58;4.45;;;14.10;99.90;;;;;;4986186;28;20042;-73
2023/05/23 08:15:51;;;;;;;19.33;4.45;;;14.30;99.90;;;;;;4980526;28;20053;-73
2023/05/23 08:18:16;;;;;;;19.60;4.35;;;14.40;99.90;;;;;;4996336;28;20037;-73
2023/05/23 08:20:42;;;;;;;15.70;3.92;;;14.60;99.90;;;;;;4986493;28;20035;-73
2023/05/23 08:23:08;;;;;;;19.42;4.00;;;14.90;99.90;;;;;;4987765;28;20042;-73
2023/05/23 08:25:34;;;;;;;19.20;3.50;;;15.10;99.90;;;;;;4985859;28;20042;-73
2023/05/23 08:28:00;;;;;;;19.90;4.57;;;15.30;99.90;;;;;;4987194;28;20526;-73
2023/05/23 08:30:27;;;;;;;19.23;4.13;;;15.30;99.90;;;;;;4982135;28;20074;-72
2023/05/23 08:32:54;;;;;;;23.00;5.20;;;15.30;99.90;;;;;;4969928;28;20038;-73
2023/05/23 08:35:21;;;;;;;29.88;5.97;;;15.40;99.90;;;;;;4962904;28;20051;-74
2023/05/23 08:37:47;;;;;;;17.70;4.32;;;15.40;99.90;;;;;;4983867;28;20070;-73
2023/05/23 08:40:20;;;;;;;20.63;5.15;;;15.20;99.90;;;;;;4982240;28;20133;-73
2023/05/23 08:42:47;;;;;;;17.25;4.38;;;15.20;99.90;;;;;;4970308;28;20050;-73
2023/05/23 08:45:14;;;;;;;21.02;4.15;;;15.00;99.90;;;;;;4969577;28;20046;-74
2023/05/23 08:47:43;;;;;;;18.77;4.63;;;14.90;99.90;;;;;;4968791;28;20068;-74
2023/05/23 08:50:13;;;;;;;19.17;4.88;;;15.00;99.90;;;;;;4963746;28;20074;-75
2023/05/23 08:52:59;;;;;;;21.20;4.10;;;15.00;99.90;;;;;;4987725;28;20077;-74
2023/05/23 08:55:28;;;;;;;17.20;4.07;;;14.90;99.90;;;;;;4965281;28;20049;-74
2023/05/23 08:57:56;;;;;;;19.85;4.68;;;14.70;99.90;;;;;;4961772;28;20591;-74
2023/05/23 09:00:24;;;;;;;21.13;4.40;;;14.60;99.90;;;;;;4967970;28;20089;-74
2023/05/23 09:02:50;;;;;;;13.63;3.50;;;14.70;99.90;;;;;;4967135;28;20051;-74
2023/05/23 09:05:16;;;;;;;16.45;3.83;;;14.90;99.90;;;;;;4969349;28;20046;-75
2023/05/23 09:07:46;;;;;;;15.23;4.40;;;15.20;99.90;;;;;;4950202;28;20042;-75
2023/05/23 09:10:13;;;;;;;20.38;4.80;;;15.40;99.90;;;;;;4974652;28;20105;-74
2023/05/23 09:12:39;;;;;;;13.82;3.78;;;15.40;99.90;;;;;;4990751;28;20042;-74
2023/05/23 09:15:08;;;;;;;21.25;4.93;;;15.30;99.90;;;;;;4983497;28;20043;-74
2023/05/23 09:17:35;;;;;;;22.88;4.75;;;15.20;99.90;;;;;;4979568;28;20494;-74
2023/05/23 09:20:01;;;;;;;18.25;3.92;;;15.10;99.90;;;;;;4985307;28;20046;-74
2023/05/23 09:22:27;;;;;;;16.13;3.47;;;15.10;99.90;;;;;;4989625;28;20062;-75
2023/05/23 09:24:55;;;;;;;19.33;4.03;;;14.90;99.90;;;;;;4950612;28;20057;-75
2023/05/23 09:27:21;;;;;;;16.77;3.75;;;14.80;99.90;;;;;;4957529;28;21631;-74
2023/05/23 09:29:48;;;;;;;17.83;3.65;;;14.80;99.90;;;;;;4991850;28;20050;-75
2023/05/23 09:32:18;;;;;;;15.20;4.45;;;14.70;99.90;;;;;;4989099;28;20038;-74
2023/05/23 09:34:58;;;;;;;16.35;3.60;;;14.80;99.90;;;;;;4986498;28;20050;-75
2023/05/23 09:37:32;;;;;;;23.77;4.35;;;14.80;99.90;;;;;;4965522;28;20290;-75
2023/05/23 09:40:14;;;;;;;13.65;3.60;;;14.80;99.90;;;;;;4965469;28;20074;-75
2023/05/23 09:42:44;;;;;;;16.40;4.03;;;14.80;99.90;;;;;;4975359;28;20042;-74
2023/05/23 09:45:15;;;;;;;13.02;3.95;;;15.10;99.90;;;;;;4987258;28;20057;-74
2023/05/23 09:47:53;;;;;;;15.88;3.60;;;15.20;99.90;;;;;;4986699;28;20047;-74
2023/05/23 09:50:19;;;;;;;19.92;4.45;;;15.20;99.90;;;;;;4982549;28;20398;-74
2023/05/23 09:52:45;;;;;;;17.50;3.95;;;15.20;99.90;;;;;;4958849;28;20039;-74
2023/05/23 09:55:12;;;;;;;15.95;3.53;;;15.20;99.90;;;;;;4986015;28;20124;-74
2023/05/23 09:57:41;;;;;;;19.23;5.18;;;15.40;99.90;;;;;;4978243;28;20050;-73
2023/05/23 10:00:15;;;;;;;17.67;4.20;;;15.60;99.90;;;;;;4968918;28;20047;-74
2023/05/23 10:03:00;;;;;;;15.98;3.28;;;15.90;99.90;;;;;;4986997;28;20062;-74
2023/05/23 10:05:44;;;;;;;16.48;3.45;;;16.00;99.90;;;;;;4977822;28;21332;-74
2023/05/23 10:08:14;;;;;;;19.48;4.63;;;15.90;99.90;;;;;;4985202;28;20455;-73
2023/05/23 10:10:55;;;;;;;18.45;3.88;;;15.90;99.90;;;;;;4988067;28;20077;-75
2023/05/23 10:13:28;;;;;;;17.40;3.15;;;15.80;99.90;;;;;;4960437;28;20087;-74
2023/05/23 10:16:11;;;;;;;17.98;4.28;;;15.60;99.90;;;;;;4975972;28;22645;-74
2023/05/23 10:18:43;;;;;;;14.00;3.78;;;15.50;99.90;;;;;;4972342;28;20097;-74
2023/05/23 10:21:14;;;;;;;18.40;4.13;;;15.50;99.90;;;;;;4969883;28;20480;-75
2023/05/23 10:23:43;;;;;;;15.40;3.60;;;15.50;99.90;;;;;;4971882;28;20046;-73
2023/05/23 10:26:10;;;;;;;16.55;3.50;;;15.60;99.90;;;;;;4984722;28;20120;-74
2023/05/23 10:28:36;;;;;;;24.52;5.13;;;15.50;99.90;;;;;;4988199;28;20430;-74
2023/05/23 10:31:02;;;;;;;11.98;3.67;;;15.50;99.90;;;;;;4982941;28;20553;-73
2023/05/23 10:33:35;;;;;;;14.05;3.80;;;15.70;99.90;;;;;;4976832;28;20253;-74
2023/05/23 10:36:17;;;;;;;19.92;3.42;;;15.90;99.90;;;;;;4981430;28;20050;-74
2023/05/23 10:39:30;;;;;;;19.38;4.00;;;16.10;99.90;;;;;;4976031;28;20043;-73
2023/05/23 10:42:12;;;;;;;14.57;3.20;;;16.00;99.90;;;;;;4868862;29;20091;-73
2023/05/23 10:44:37;;;;;;;16.95;4.63;;;16.00;99.90;;;;;;4864043;29;20049;-72
2023/05/23 10:47:03;;;;;;;15.88;3.92;;;16.10;99.90;;;;;;4930928;28;20112;-73
2023/05/23 10:49:45;;;;;;;16.80;3.70;;;16.00;99.90;;;;;;4978828;28;20054;-73
2023/05/23 10:52:12;;;;;;;17.63;3.80;;;15.90;99.90;;;;;;4977026;28;20034;-72
2023/05/23 10:54:52;;;;;;;19.48;3.83;;;15.80;99.90;;;;;;4962303;28;20066;-73
2023/05/23 10:57:20;;;;;;;24.80;4.07;;;15.90;99.90;;;;;;4963496;28;20194;-73
2023/05/23 10:59:48;;;;;;;19.17;4.03;;;15.80;99.90;;;;;;4973794;28;20066;-73
2023/05/23 11:02:15;;;;;;;16.25;3.78;;;15.80;99.90;;;;;;4961644;28;20043;-72
2023/05/23 11:04:42;;;;;;;18.25;4.78;;;15.80;99.90;;;;;;4963271;28;20229;-74
2023/05/23 11:07:33;;;;;;;20.00;4.45;;;15.70;99.90;;;;;;4969374;28;20188;-73
2023/05/23 11:10:10;;;;;;;18.48;4.00;;;15.50;99.90;;;;;;4965539;28;20096;-73
2023/05/23 11:12:38;;;;;;;16.98;3.80;;;15.60;99.90;;;;;;4959530;28;20050;-74
2023/05/23 11:15:21;;;;;;;15.48;4.25;;;15.60;99.90;;;;;;4959545;28;20046;-73
2023/05/23 11:17:51;;;;;;;;;;;15.60;99.90;;;;;;4964105;28;20081;-74
2023/05/23 11:20:22;;;;;;;16.77;4.28;;;15.80;99.90;;;;;;4983743;28;19956;-73
2023/05/23 11:23:08;;;;;;;21.98;4.03;;;15.80;99.90;;;;;;4963269;28;20258;-73
2023/05/23 11:25:41;;;;;;;13.77;3.67;;;15.90;99.90;;;;;;4980419;28;20051;-75
2023/05/23 11:28:07;;;;;;;13.80;4.32;;;15.80;99.90;;;;;;4976526;28;20043;-73
2023/05/23 11:30:37;;;;;;;17.30;3.17;;;15.70;99.90;;;;;;4988086;28;20045;-74
2023/05/23 11:33:12;;;;;;;13.35;3.00;;;15.60;99.90;;;;;;4982162;28;20046;-75
2023/05/23 11:35:42;;;;;;;15.55;3.63;;;15.70;99.90;;;;;;4962574;28;20105;-73
2023/05/23 11:38:09;;;;;;;18.25;3.53;;;16.00;99.90;;;;;;4982264;28;20057;-72
2023/05/23 11:40:40;;;;;;;14.98;3.97;;;16.00;99.90;;;;;;4992819;28;20041;-73
2023/05/23 11:43:08;;;;;;;16.23;3.33;;;16.10;99.90;;;;;;4972716;28;20101;-73
2023/05/23 11:45:35;;;;;;;16.55;3.70;;;16.10;99.90;;;;;;4967302;28;20038;-73
2023/05/23 11:48:15;;;;;;;20.52;3.67;;;16.30;99.90;;;;;;4978628;28;20051;-73
2023/05/23 11:50:47;;;;;;;17.50;3.60;;;16.60;99.90;;;;;;4984994;28;20050;-74
2023/05/23 11:53:19;;;;;;;18.77;3.72;;;16.50;99.90;;;;;;4991486;28;20496;-73
2023/05/23 11:56:00;;;;;;;15.80;4.00;;;16.30;99.90;;;;;;4975135;28;20049;-73
2023/05/23 11:58:32;;;;;;;18.60;3.83;;;16.20;99.90;;;;;;4970888;28;20494;-73
2023/05/23 12:01:00;;;;;;;15.70;3.17;;;16.10;99.90;;;;;;4952200;28;20055;-72
2023/05/23 12:03:25;;;;;;;14.88;3.42;;;15.70;99.90;;;;;;4962450;28;20046;-74
2023/05/23 12:05:51;;;;;;;16.98;4.32;;;15.50;99.90;;;;;;4986257;28;20060;-73
2023/05/23 12:08:16;;;;;;;13.02;3.08;;;15.60;99.90;;;;;;4984930;28;20049;-74
2023/05/23 12:10:51;;;;;;;13.82;3.00;;;15.70;99.90;;;;;;4966876;28;20050;-73
2023/05/23 12:13:16;;;;;;;12.40;3.13;;;16.10;99.90;;;;;;4962524;28;20510;-73
2023/05/23 12:15:42;;;;;;;18.98;4.20;;;16.20;99.90;;;;;;4959898;28;20047;-73
2023/05/23 12:18:07;;;;;;;16.30;3.75;;;16.10;99.90;;;;;;4961814;28;20501;-72
2023/05/23 12:20:35;;;;;;;13.52;3.15;;;15.90;99.90;;;;;;4988941;28;20591;-73
2023/05/23 12:23:05;;;;;;;16.50;4.03;;;15.80;99.90;;;;;;4969888;28;20113;-72
2023/05/23 12:25:40;;;;;;;15.90;3.83;;;16.10;99.90;;;;;;4950998;28;20038;-72
2023/05/23 12:28:06;;;;;;;13.23;3.35;;;16.00;99.90;;;;;;4986901;28;20038;-72
2023/05/23 12:30:41;;;;;;;14.63;3.25;;;16.10;99.90;;;;;;4960916;28;20578;-72
2023/05/23 12:33:08;;;;;;;13.18;3.78;;;16.20;99.90;;;;;;4983770;28;20046;-72
2023/05/23 12:35:34;;;;;;;15.93;3.35;;;16.30;99.90;;;;;;4958797;28;20262;-72
2023/05/23 12:37:59;;;;;;;13.25;3.63;;;16.20;99.90;;;;;;4957324;28;20293;-72
2023/05/23 12:40:26;;;;;;;17.33;3.40;;;16.30;99.90;;;;;;4982079;28;20136;-72